createdAt,value
2018-10-19T00:02:27.566Z,14.50
2018-10-19T00:07:34.349Z,14.13
2018-10-19T00:12:38.891Z,13.93
2018-10-19T00:17:44.067Z,14.27
2018-10-19T00:22:48.871Z,13.00
2018-10-19T00:27:54.069Z,12.23
2018-10-19T00:32:58.490Z,13.53
2018-10-19T00:38:03.183Z,13.00
2018-10-19T00:43:12.803Z,11.57
2018-10-19T00:48:18.596Z,12.10
2018-10-19T00:53:23.219Z,11.10
2018-10-19T00:58:27.851Z,11.60
2018-10-19T01:03:33.145Z,11.63
2018-10-19T01:08:38.644Z,12.40
2018-10-19T01:13:43.934Z,10.93
2018-10-19T01:18:49.023Z,9.97
2018-10-19T01:23:53.548Z,11.00
2018-10-19T01:28:58.772Z,8.70
2018-10-19T01:34:16.760Z,9.33
2018-10-19T01:39:22.314Z,8.03
2018-10-19T01:44:26.852Z,9.03
2018-10-19T01:49:31.384Z,7.27
2018-10-19T01:54:35.812Z,7.30
2018-10-19T01:59:41.734Z,8.13
2018-10-19T02:04:46.381Z,7.80
2018-10-19T02:09:52.166Z,7.50
2018-10-19T02:15:02.919Z,8.37
2018-10-19T02:20:07.510Z,7.40
2018-10-19T02:25:16.921Z,7.37
2018-10-19T02:30:21.889Z,7.63
2018-10-19T02:35:27.230Z,7.00
2018-10-19T02:40:31.860Z,7.93
2018-10-19T02:45:43.749Z,6.87
2018-10-19T02:50:48.729Z,6.40
2018-10-19T02:55:54.092Z,6.90
2018-10-19T03:00:59.010Z,6.60
2018-10-19T03:06:03.758Z,6.50
2018-10-19T03:11:08.496Z,6.83
2018-10-19T03:16:13.003Z,9.27
2018-10-19T03:21:17.412Z,7.73
2018-10-19T03:26:23.834Z,6.47
2018-10-19T03:31:28.908Z,6.90
2018-10-19T03:36:34.606Z,7.20
2018-10-19T03:41:38.914Z,9.17
2018-10-19T03:46:43.874Z,9.33
2018-10-19T03:51:53.345Z,9.93
2018-10-19T03:56:59.215Z,10.30
2018-10-19T04:02:03.430Z,10.23
2018-10-19T04:07:08.136Z,10.93
2018-10-19T04:12:13.024Z,10.70
2018-10-19T04:17:17.456Z,11.97
2018-10-19T04:22:21.567Z,11.53
2018-10-19T04:27:26.018Z,11.27
2018-10-19T04:32:30.804Z,12.57
2018-10-19T04:37:35.190Z,11.57
2018-10-19T04:42:40.277Z,12.23
2018-10-19T04:47:44.667Z,12.63
2018-10-19T04:52:48.858Z,13.33
2018-10-19T04:57:53.340Z,13.70
2018-10-19T05:02:58.256Z,13.83
2018-10-19T05:08:03.483Z,13.70
2018-10-19T05:13:08.116Z,14.30
2018-10-19T05:18:12.519Z,12.07
2018-10-19T05:23:17.205Z,12.30
2018-10-19T05:28:21.266Z,11.73
2018-10-19T05:33:25.827Z,11.53
2018-10-19T05:38:30.042Z,10.27
2018-10-19T05:43:34.525Z,10.23
2018-10-19T05:48:39.104Z,9.80
2018-10-19T05:53:43.544Z,10.37
2018-10-19T05:58:48.046Z,10.17
2018-10-19T06:03:52.336Z,10.27
2018-10-19T06:08:56.570Z,9.30
2018-10-19T06:14:01.122Z,9.37
2018-10-19T06:19:05.420Z,9.90
2018-10-19T06:29:42.280Z,8.40
2018-10-19T06:34:46.517Z,9.57
2018-10-19T06:39:51.780Z,9.43
2018-10-19T06:44:56.184Z,8.70
2018-10-19T06:50:00.685Z,9.43
2018-10-19T06:55:06.142Z,9.50
2018-10-19T07:00:10.908Z,9.40
2018-10-19T07:05:15.285Z,10.40
2018-10-19T07:10:19.700Z,8.80
2018-10-19T07:15:23.999Z,8.23
2018-10-19T07:20:28.882Z,8.47
2018-10-19T07:25:33.355Z,8.13
2018-10-19T07:30:37.612Z,8.37
2018-10-19T07:35:42.323Z,8.00
2018-10-19T07:40:46.627Z,7.70
2018-10-19T07:45:51.220Z,8.00
2018-10-19T07:50:55.956Z,8.00
2018-10-19T07:56:00.584Z,8.07
2018-10-19T08:01:06.083Z,7.47
2018-10-19T08:06:10.432Z,7.80
2018-10-19T08:11:15.315Z,7.60
2018-10-19T08:16:19.908Z,7.67
2018-10-19T08:21:24.196Z,7.60
2018-10-19T08:26:28.718Z,7.10
2018-10-19T08:31:33.054Z,7.63
2018-10-19T08:36:37.792Z,8.07
2018-10-19T08:42:04.474Z,7.40
2018-10-19T08:47:09.580Z,6.80
2018-10-19T08:52:13.955Z,6.70
2018-10-19T08:57:18.974Z,7.10
2018-10-19T09:02:23.827Z,6.77
2018-10-19T09:07:28.284Z,6.60
2018-10-19T09:12:32.715Z,6.90
2018-10-19T09:17:37.139Z,7.03
2018-10-19T09:22:41.493Z,6.90
2018-10-19T09:27:46.023Z,6.57
2018-10-19T09:32:50.502Z,6.77
2018-10-19T09:37:54.875Z,6.70
2018-10-19T09:43:08.913Z,6.97
2018-10-19T09:48:14.033Z,6.50
2018-10-19T09:53:18.372Z,7.53
2018-10-19T09:58:23.200Z,6.80
2018-10-19T10:03:28.758Z,6.20
2018-10-19T10:08:33.089Z,6.93
2018-10-19T10:13:37.612Z,6.40
2018-10-19T10:18:42.142Z,6.13
2018-10-19T10:23:47.287Z,7.43
2018-10-19T10:28:51.628Z,6.87
2018-10-19T10:33:56.223Z,7.63
2018-10-19T10:39:01.541Z,7.47
2018-10-19T10:44:05.795Z,6.80
2018-10-19T10:49:09.972Z,6.73
2018-10-19T10:54:14.217Z,6.33
2018-10-19T10:59:18.657Z,6.43
2018-10-19T11:04:22.834Z,7.33
2018-10-19T11:09:27.849Z,6.70
2018-10-19T11:14:32.191Z,7.27
2018-10-19T11:19:36.573Z,6.50
2018-10-19T11:24:40.848Z,7.40
2018-10-19T11:29:45.689Z,7.17
2018-10-19T11:34:52.556Z,7.97
2018-10-19T11:40:34.369Z,6.53
2018-10-19T11:45:40.033Z,6.97
2018-10-19T11:50:49.672Z,7.23
2018-10-19T11:55:55.849Z,6.63
2018-10-19T12:01:02.139Z,6.53
2018-10-19T12:06:07.307Z,5.97
2018-10-19T12:11:13.133Z,5.77
2018-10-19T12:16:17.652Z,5.70
2018-10-19T12:21:22.333Z,5.70
2018-10-19T12:26:27.051Z,5.23
2018-10-19T12:31:31.409Z,7.57
2018-10-19T12:36:35.588Z,5.90
2018-10-19T12:41:40.033Z,5.90
2018-10-19T12:46:55.395Z,5.93
2018-10-19T12:52:00.046Z,5.37
2018-10-19T12:57:04.987Z,6.83
2018-10-19T13:02:13.391Z,5.93
2018-10-19T13:07:18.429Z,5.43
2018-10-19T13:12:23.396Z,5.30
2018-10-19T13:17:31.495Z,6.17
2018-10-19T13:22:37.144Z,5.60
2018-10-19T13:27:42.608Z,6.97
2018-10-19T13:33:05.031Z,6.00
2018-10-19T13:38:16.734Z,6.10
2018-10-19T13:43:32.339Z,4.33
2018-10-19T13:48:40.044Z,5.13
2018-10-19T13:54:06.003Z,5.67
2018-10-19T13:59:11.641Z,4.63
2018-10-19T14:04:21.632Z,4.67
2018-10-19T14:09:26.797Z,4.50
2018-10-19T14:14:41.541Z,4.27
2018-10-19T14:19:46.443Z,4.90
2018-10-19T14:24:52.012Z,4.70
2018-10-19T14:29:57.375Z,4.57
2018-10-19T14:35:15.698Z,3.90
2018-10-19T14:40:20.909Z,4.03
2018-10-19T14:45:26.885Z,4.80
2018-10-19T14:50:36.539Z,4.93
2018-10-19T14:55:46.260Z,4.53
2018-10-19T15:00:50.919Z,4.00
2018-10-19T15:05:55.573Z,4.90
2018-10-19T15:11:01.044Z,4.43
2018-10-19T15:16:05.363Z,4.30
2018-10-19T15:21:12.995Z,4.00
2018-10-19T15:26:18.975Z,4.20
2018-10-19T15:31:24.463Z,4.10
2018-10-19T15:36:29.910Z,3.77
2018-10-19T15:41:34.968Z,3.90
2018-10-19T15:46:42.770Z,4.07
2018-10-19T15:52:00.818Z,4.27
2018-10-19T15:57:08.438Z,4.43
2018-10-19T16:02:15.369Z,3.70
2018-10-19T16:07:29.457Z,3.97
2018-10-19T16:12:35.708Z,3.90
2018-10-19T16:17:44.538Z,3.50
2018-10-19T16:22:49.193Z,3.77
2018-10-19T16:27:54.595Z,3.83
2018-10-19T16:33:04.400Z,3.60
2018-10-19T16:38:11.403Z,3.50
2018-10-19T16:43:24.903Z,3.20
2018-10-19T16:48:31.267Z,3.90
2018-10-19T16:53:36.731Z,4.80
2018-10-19T16:58:47.792Z,5.63
2018-10-19T17:03:53.412Z,4.30
2018-10-19T17:08:58.675Z,3.60
2018-10-19T17:14:03.487Z,4.00
2018-10-19T17:19:08.637Z,4.07
2018-10-19T17:24:16.146Z,4.00
2018-10-19T17:29:20.733Z,3.90
2018-10-19T17:34:25.948Z,4.30
2018-10-19T17:39:30.595Z,3.60
2018-10-19T17:44:35.828Z,4.50
2018-10-19T17:49:40.821Z,4.40
2018-10-19T17:54:52.013Z,4.00
2018-10-19T17:59:57.310Z,5.07
2018-10-19T18:05:03.647Z,5.43
2018-10-19T18:10:08.378Z,5.20
2018-10-19T18:15:13.090Z,5.47
2018-10-19T18:20:18.022Z,5.07
2018-10-19T18:25:22.669Z,5.57
2018-10-19T18:30:27.570Z,6.00
2018-10-19T18:35:32.880Z,6.40
2018-10-19T18:40:38.028Z,6.33
2018-10-19T18:45:42.484Z,6.17
2018-10-19T18:50:47.242Z,5.87
2018-10-19T18:55:52.720Z,6.53
2018-10-19T19:00:58.174Z,7.23
2018-10-19T19:06:04.053Z,6.50
2018-10-19T19:11:08.849Z,6.37
2018-10-19T19:16:19.516Z,6.90
2018-10-19T19:21:26.238Z,6.30
2018-10-19T19:26:30.844Z,6.57
2018-10-19T19:31:35.511Z,6.80
2018-10-19T19:36:40.468Z,6.77
2018-10-19T19:41:59.878Z,6.77
2018-10-19T19:47:05.146Z,6.10
2018-10-19T19:52:09.645Z,7.20
2018-10-19T19:57:14.089Z,7.37
2018-10-19T20:02:23.911Z,7.27
2018-10-19T20:07:29.025Z,6.83
2018-10-19T20:12:33.695Z,6.83
2018-10-19T20:17:38.301Z,5.93
2018-10-19T20:22:43.404Z,6.33
2018-10-19T20:27:47.971Z,6.93
2018-10-19T20:32:53.450Z,6.63
2018-10-19T20:37:58.320Z,6.53
2018-10-19T20:43:13.213Z,7.50
2018-10-19T20:48:18.493Z,8.80
2018-10-19T20:53:24.296Z,9.77
2018-10-19T20:58:29.043Z,10.37
2018-10-19T21:03:52.997Z,9.83
2018-10-19T21:08:59.660Z,9.90
2018-10-19T21:14:13.749Z,10.20
2018-10-19T21:19:19.482Z,9.23
2018-10-19T21:24:26.391Z,9.63
2018-10-19T21:29:34.949Z,9.20
2018-10-19T21:34:58.058Z,9.17
2018-10-19T21:40:03.475Z,9.63
2018-10-19T21:45:13.623Z,8.90
2018-10-19T21:50:22.235Z,8.47
2018-10-19T21:55:32.231Z,8.97
2018-10-19T22:00:37.394Z,8.77
2018-10-19T22:05:41.935Z,9.37
2018-10-19T22:10:46.494Z,8.77
2018-10-19T22:15:51.437Z,8.90
2018-10-19T22:20:56.291Z,8.53
2018-10-19T22:26:02.073Z,8.43
2018-10-19T22:31:08.151Z,9.13
2018-10-19T22:36:12.694Z,9.30
2018-10-19T22:41:19.124Z,8.93
2018-10-19T22:46:25.601Z,9.50
2018-10-19T22:51:31.790Z,9.03
2018-10-19T22:56:36.263Z,8.50
2018-10-19T23:01:45.800Z,9.23
2018-10-19T23:06:50.414Z,9.47
2018-10-19T23:11:55.386Z,8.43
2018-10-19T23:17:04.644Z,8.97
2018-10-19T23:22:14.065Z,8.77
2018-10-19T23:27:19.054Z,7.70
2018-10-19T23:32:24.694Z,7.47
2018-10-19T23:37:29.285Z,6.90
2018-10-19T23:42:34.391Z,7.20
2018-10-19T23:47:38.868Z,6.53
2018-10-19T23:52:43.200Z,7.87
2018-10-19T23:57:47.901Z,7.00
